Tiempo atmosférico en la estación meteorológica de Agulo, Santa Cruz de Tenerife (765 m.)



Fecha
DESCASC
Temp. máxima en grados centígrados (hora)
DESCASC
Temp. mínima en grados centígrados (hora)
DESCASC
Temp. media en grados centígrados
DESCASC
Racha de viento máxima en m/sg (hora)
DESCASC
Velocidad máxima media en intervalos de 10 minutos(hora)
DESCASC
Precipitaciones diarias en mm
DESCASC
Precipitaciones de 00:00 a 06:00 en mm
DESCASC
Precipitaciones de 06:00 a 12:00 en mm
DESCASC
Precipitaciones de 12:00 a 18:00 en mm
DESCASC
Precipitaciones de 18:00 a 24:00 en mm
DESCASC
18-02-2018 14.8 (16:00) 9.4 (06:50) 12.1 8.61 (05:00) 2.78 (04:50) 0 0 0 0 0
17-02-2018 16.1 (14:00) 10.3 (08:50) 13.2 6.11 (22:50) 2.22 (13:10) 0 0 0 0 0
16-02-2018 19 (13:40) 10.9 (08:20) 14.9 6.94 (00:30) 5 (00:10) 0 0 0 0 0
15-02-2018 21.2 (14:50) 11 (00:00) 16.1 11.11 (22:20) 6.39 (20:40) 0 0 0 0 0
14-02-2018 19.4 (14:50) 8.4 (00:00) 13.9 8.33 (12:40) 5 (20:30) 0 0 0 0 0
13-02-2018 16.1 (12:30) 9 (00:00) 12.6 5.28 (05:50) 2.78 (11:50) 0 0 0 0 0
12-02-2018 13.2 (15:00) 9.2 (00:00) 11.2 6.39 (12:50) 3.33 (22:50) 0 0 0 0 0
11-02-2018 13.1 (12:40) 8.7 (00:00) 10.9 8.61 (07:00) 3.61 (00:40) 0 0 0 0 0
10-02-2018 12.5 (15:10) 9.2 (00:00) 10.8 9.72 (20:40) 3.89 (20:50) 0.8 0 0.2 0 0.6
09-02-2018 11.1 (13:40) 7.8 (00:00) 9.5 11.11 (06:10) 4.44 (04:10) 3 0.2 2.8 0 0
08-02-2018 10.6 (13:20) 7.3 (00:00) 9 11.11 (18:50) 4.72 (06:00) 2.6 1.6 0.4 0.2 0.4
07-02-2018 11.2 (13:20) 7.7 (00:00) 9.4 14.44 (19:40) 5 (21:20) 3.8 0.6 0 0.2 3
06-02-2018 13.3 (13:10) 8.3 (00:00) 10.8 11.11 (22:10) 3.89 (13:00) 0 0 0 0 0
05-02-2018 11 (14:50) 8.9 (00:00) 9.9 12.22 (05:40) 4.72 (07:20) 3.4 1 2.4 0 0
04-02-2018 12.7 (15:00) 8.7 (00:00) 10.7 9.17 (04:00) 3.89 (04:10) 2.2 0.8 1.4 0 0
03-02-2018 10.7 (14:30) 8.6 (00:00) 9.7 11.94 (04:40) 4.72 (02:50) 5.4 3 1 1.4 0
02-02-2018 11 (12:20) 8.9 (00:00) 9.9 10.56 (17:10) 3.89 (05:20) 5.6 1.4 1 1.2 2
01-02-2018 12 (12:20) 9 (00:00) 10.5 9.44 (21:50) 3.61 (15:20) 0.6 0 0.6 0 0
31-01-2018 11.1 (11:50) 8.4 (00:00) 9.8 15.83 (21:20) 6.11 (16:10) 14.4 0 2.4 11.8 0.2
30-01-2018 10.9 (11:40) 8.3 (00:00) 9.6 10.28 (08:40) 4.17 (12:20) 5.6 1 4.2 0.4 0
29-01-2018 11.6 (11:00) 7.9 (00:00) 9.8 10.83 (13:50) 3.89 (08:10) 0.2 0 0 0 0.2
28-01-2018 12.6 (13:50) 8.9 (00:00) 10.8 12.78 (12:50) 5 (03:30) 0.2 0 0.2 0 0
27-01-2018 13.4 (12:40) 8.6 (00:00) 11 12.22 (05:20) 5.28 (04:50) 0.2 0.2 0 0 0
26-01-2018 12.2 (10:00) 9.6 (00:00) 10.9 11.39 (11:20) 4.72 (11:20) 0 0 0 0 0
25-01-2018 12.5 (13:50) 9.9 (00:00) 11.2 9.17 (23:10) 3.61 (23:10) 0 0 0 0 0
24-01-2018 17.1 (12:50) 10.6 (00:00) 13.9 5 (03:10) 2.22 (22:00) 0 0 0 0 0
23-01-2018 18.7 (16:40) 10.6 (00:00) 14.7 5 (03:20) 2.5 (20:50) 0 0 0 0 0
22-01-2018 20.7 (12:50) 9.2 (00:00) 15 6.11 (23:20) 3.33 (12:00) 0 0 0 0 0

Gráficas

Temp. máximas Temp. mínimas Temp. medias Precipitaciones Rachas de viento máximas Velocidades máximas media en intervalos de 10 minutos

Datos horarios

Fecha y hora oficial Temperatura (ºC) Velocidad del viento (km/h) Dirección del viento Racha (km/h) Dirección de racha Precipitación (mm) Presión (hPa) Tendencia (hPa) Humedad (%)
2018-02-20 23:00:00 10.1 9 Sudeste 21 Este 0 -- -- 98
2018-02-20 22:00:00 10.2 8 Sur 21 Nordeste 0 -- -- 94
2018-02-20 21:00:00 10.1 5 Sur 17 Sudeste 0 -- -- 92
2018-02-20 20:00:00 10.2 8 Sur 15 Sudeste 0 -- -- 91
2018-02-20 19:00:00 10.4 6 Sudoeste 16 Este 0 -- -- 92
2018-02-20 18:00:00 10.7 7 Sur 19 Este 0 -- -- 93
2018-02-20 17:00:00 11 6 Sur 17 Sudeste 0 -- -- 96
2018-02-20 16:00:00 11.8 7 Sudeste 18 Este 0 -- -- 91
2018-02-20 15:00:00 12.4 5 Este 14 Este 0 -- -- 88
2018-02-20 14:00:00 12.4 6 Sur 15 Sudeste 0 -- -- 89
2018-02-20 13:00:00 12.6 6 Sudeste 17 Sudeste 0 -- -- 85
2018-02-20 12:00:00 12.5 4 Sudeste 14 Este 0 -- -- 91
2018-02-20 11:00:00 10.9 5 Sudeste 26 Sudeste 0 -- -- 99
2018-02-20 10:00:00 10 8 Sudeste 25 Nordeste 0 -- -- 100
2018-02-20 09:00:00 9.8 8 Sudeste 24 Este 0 -- -- 100
2018-02-20 08:00:00 10.1 9 Sudeste 22 Sudeste 0 -- -- 100
2018-02-20 07:00:00 10 7 Este 22 Noroeste 0 -- -- 100
2018-02-20 06:00:00 10 4 Sur 15 Este 0 -- -- 100
2018-02-20 05:00:00 9.8 5 Sudeste 19 Sudeste 0 -- -- 100
2018-02-20 04:00:00 9.9 6 Sudeste 19 Este 0 -- -- 100
2018-02-20 03:00:00 10.1 6 Sudeste 18 Norte 0 -- -- 100
2018-02-20 02:00:00 10.2 8 Sur 18 Sudeste 0 -- -- 100
2018-02-20 01:00:00 10.1 8 Sudoeste 17 Sudeste 0 -- -- 99
2018-02-20 00:00:00 9.7 4 Sudoeste 14 Sur 0 -- -- 99
2018-02-19 23:00:00 10.1 4 Sudeste 18 Sudeste 0 -- -- 99
2018-02-19 22:00:00 10.3 5 Sudeste 17 Oeste 0 -- -- 99
2018-02-19 21:00:00 10.3 6 Sur 17 Este 0 -- -- 99
2018-02-19 20:00:00 10.4 6 Sur 19 Este 0 -- -- 98
2018-02-19 19:00:00 10.6 6 Sur 19 Sudeste 0 -- -- 97
2018-02-19 18:00:00 10.8 4 Sudeste 14 Nordeste 0 -- -- 95
2018-02-19 17:00:00 11.3 6 Sudeste 18 Nordeste 0 -- -- 92
2018-02-19 16:00:00 12.2 4 Sudoeste 17 Sudeste 0 -- -- 90
2018-02-19 15:00:00 11.9 9 Este 18 Sudeste 0 -- -- 92
2018-02-19 14:00:00 11.8 4 Este 14 Sudeste 0 -- -- 95
2018-02-19 13:00:00 12.1 4 Sudeste 20 Este 0 -- -- 95
2018-02-19 12:00:00 11.4 5 Este 16 Sudeste 0 -- -- 98
2018-02-19 11:00:00 11.1 7 Sudeste 17 Este 0 -- -- 99
2018-02-19 10:00:00 10.4 5 Sudeste 14 Este 0 -- -- 100
2018-02-19 09:00:00 9.8 5 Sudeste 19 Nordeste 0 -- -- 99
2018-02-19 08:00:00 9.7 4 Sudoeste 17 Norte 0 -- -- 98
2018-02-19 07:00:00 9.8 4 Sudoeste 15 Norte 0 -- -- 97
2018-02-19 06:00:00 9.6 3 Sudeste 9 Este 0 -- -- 96
2018-02-19 05:00:00 9.3 3 Sudeste 8 Noroeste 0 -- -- 96
2018-02-19 04:00:00 9.1 3 Este 14 Este 0 -- -- 96
2018-02-19 03:00:00 9 7 Este 15 Sudeste 0 -- -- 96
2018-02-19 02:00:00 9.2 5 Este 17 Este 0 -- -- 96
2018-02-19 01:00:00 9.6 4 Este 14 Este 0 -- -- 95
2018-02-19 00:00:00 10.3 6 Sudeste 17 Este 0 -- -- 96
2018-02-18 23:00:00 10.3 5 Este 14 Este 0 -- -- 95
2018-02-18 22:00:00 10.4 4 Este 11 Sudeste 0 -- -- 93
2018-02-18 21:00:00 10.5 5 Sudeste 13 Este 0 -- -- 91
2018-02-18 20:00:00 10.6 4 Sudeste 14 Nordeste 0 -- -- 89
2018-02-18 19:00:00 11 4 Sur 9 Nordeste 0 -- -- 84
2018-02-18 18:00:00 12.3 3 Sur 10 Norte 0 -- -- 78
2018-02-18 17:00:00 13.4 4 Sur 15 Norte 0 -- -- 78
2018-02-18 16:00:00 14.8 5 Sudeste 14 Sur 0 -- -- 70
2018-02-18 15:00:00 13.2 4 Sudeste 12 Este 0 -- -- 82
2018-02-18 14:00:00 13.1 5 Sudeste 14 Sudeste 0 -- -- 80
2018-02-18 13:00:00 13.3 5 Este 11 Este 0 -- -- 78
2018-02-18 12:00:00 11.2 6 Nordeste 15 Nordeste 0 -- -- 85
2018-02-18 11:00:00 12 6 Este 14 Este 0 -- -- 83
2018-02-18 10:00:00 11.5 5 Este 16 Sudeste 0 -- -- 90
2018-02-18 09:00:00 10.1 6 Este 13 Este 0 -- -- 98
2018-02-18 08:00:00 9.7 5 Este 17 Este 0 -- -- 98
2018-02-18 07:00:00 9.4 7 Este 22 Norte 0 -- -- 99
2018-02-18 06:00:00 10 7 Sudeste 25 Este 0 -- -- 99
2018-02-18 05:00:00 10.3 8 Sudeste 31 Este 0 -- -- 99
2018-02-18 04:00:00 10.4 6 Sudeste 21 Este 0 -- -- 99
2018-02-18 03:00:00 10.4 7 Sur 22 Nordeste 0 -- -- 98
2018-02-18 02:00:00 10.4 5 Sudeste 20 Sudeste 0 -- -- 96
2018-02-18 01:00:00 10.4 4 Sudeste 11 Sur 0 -- -- 95
2018-02-18 00:00:00 10.5 5 Sur 12 Sudeste 0 -- -- 94
2018-02-17 23:00:00 10.5 4 Sur 22 Norte 0 -- -- 94
2018-02-17 22:00:00 10.6 3 Sur 11 Sur 0 -- -- 92
2018-02-17 21:00:00 10.5 2 Norte 8 Noroeste 0 -- -- 91
2018-02-17 20:00:00 10.7 3 Sudoeste 15 Norte 0 -- -- 90
2018-02-17 19:00:00 11.1 4 Nordeste 14 Este 0 -- -- 88
2018-02-17 18:00:00 13.1 4 Este 14 Noroeste 0 -- -- 80
2018-02-17 17:00:00 14.6 3 Este 17 Sudeste 0 -- -- 74
2018-02-17 16:00:00 14.6 6 Este 15 Sudeste 0 -- -- 69
2018-02-17 15:00:00 14.7 5 Nordeste 17 Este 0 -- -- 69
2018-02-17 14:00:00 16.1 6 Este 19 Este 0 -- -- 66
2018-02-17 13:00:00 14.9 4 Sudeste 15 Este 0 -- -- 77
2018-02-17 12:00:00 12.2 4 Este 10 Nordeste 0 -- -- 88
2018-02-17 11:00:00 12.1 4 Sudeste 16 Este 0 -- -- 90
2018-02-17 10:00:00 11.3 5 Norte 12 Nordeste 0 -- -- 95
2018-02-17 09:00:00 10.6 3 Nordeste 15 Sudeste 0 -- -- 96
2018-02-17 08:00:00 10.6 2 Este 9 Nordeste 0 -- -- 94
2018-02-17 07:00:00 10.6 5 Norte 13 Norte 0 -- -- 93
2018-02-17 06:00:00 10.6 5 Oeste 10 Sudoeste 0 -- -- 93
2018-02-17 05:00:00 10.6 5 Sudeste 12 Sudoeste 0 -- -- 88
2018-02-17 04:00:00 10.9 4 Sudoeste 9 Sudoeste 0 -- -- 91
2018-02-17 03:00:00 10.9 3 Oeste 12 Sudoeste 0 -- -- 88
2018-02-17 02:00:00 11.1 3 Sudoeste 15 Sudoeste 0 -- -- 90
2018-02-17 01:00:00 11.2 4 Sudoeste 17 Norte 0 -- -- 91
2018-02-17 00:00:00 11.6 3 Sur 16 Sudeste 0 -- -- 92
2018-02-16 23:00:00 11.3 6 Sur 17 Sudeste 0 -- -- 89
2018-02-16 22:00:00 11.3 7 Nordeste 25 Este 0 -- -- 89
2018-02-16 21:00:00 11.4 3 Noroeste 9 Norte 0 -- -- 90
2018-02-16 20:00:00 11.4 3 Oeste 14 Norte 0 -- -- 87
2018-02-16 19:00:00 13.3 3 Noroeste 10 Noroeste 0 -- -- 79
2018-02-16 18:00:00 15.1 3 Noroeste 12 Norte 0 -- -- 77
2018-02-16 17:00:00 16.2 4 Norte 9 Norte 0 -- -- 79
2018-02-16 16:00:00 16.1 3 Sudoeste 11 Sudoeste 0 -- -- 77
2018-02-16 15:00:00 18.1 5 Sur 21 Norte 0 -- -- 70
2018-02-16 14:00:00 18 10 Norte 17 Noroeste 0 -- -- 65
2018-02-16 13:00:00 18.6 6 Norte 15 Norte 0 -- -- 57
2018-02-16 12:00:00 18.8 8 Sudeste 19 Sudeste 0 -- -- 48
2018-02-16 11:00:00 17.7 9 Sudeste 23 Sudeste 0 -- -- 45
2018-02-16 10:00:00 15.7 11 Sur 22 Sudeste 0 -- -- 39
2018-02-16 09:00:00 12.5 9 Sudoeste 15 Sudoeste 0 -- -- 55
2018-02-16 08:00:00 12.3 4 Sudoeste 13 Sudoeste 0 -- -- 47
2018-02-16 07:00:00 11.7 8 Sudoeste 12 Sudoeste 0 -- -- 51
2018-02-16 06:00:00 12.7 2 Norte 10 Norte 0 -- -- 46
2018-02-16 05:00:00 13.5 4 Noroeste 10 Sudoeste 0 -- -- 41
2018-02-16 04:00:00 13.3 7 Sudoeste 13 Sudoeste 0 -- -- 40
2018-02-16 03:00:00 13.5 5 Sudoeste 13 Sudoeste 0 -- -- 39
2018-02-16 02:00:00 13.9 6 Sur 18 Sur 0 -- -- 39
2018-02-16 01:00:00 14.2 14 Sur 25 Sur 0 -- -- 39
2018-02-16 00:00:00 14.6 18 Sudeste 36 Sur 0 -- -- 38
2018-02-15 23:00:00 14.6 18 Sur 40 Sudeste 0 -- -- 36
2018-02-15 22:00:00 15.1 21 Sur 35 Sudeste 0 -- -- 31
2018-02-15 21:00:00 15.4 20 Sur 36 Sudeste 0 -- -- 30
2018-02-15 20:00:00 14.9 13 Sur 24 Sur 0 -- -- 32
2018-02-15 19:00:00 15.2 10 Sur 18 Sudeste 0 -- -- 34
2018-02-15 18:00:00 15.9 13 Sur 27 Sur 0 -- -- 35
2018-02-15 17:00:00 16.6 12 Sur 26 Sur 0 -- -- 35
2018-02-15 16:00:00 17 14 Sur 24 Sur 0 -- -- 40
2018-02-15 15:00:00 21 12 Sur 32 Sudeste 0 -- -- 44
2018-02-15 14:00:00 20.4 13 Sur 24 Sur 0 -- -- 44
2018-02-15 13:00:00 20.1 16 Sudeste 31 Sudeste 0 -- -- 48
2018-02-15 12:00:00 19.9 17 Sudeste 26 Sudeste 0 -- -- 33
2018-02-15 11:00:00 18.4 8 Sur 16 Sur 0 -- -- 31
2018-02-15 10:00:00 17 7 Sudeste 11 Sudeste 0 -- -- 34
2018-02-15 09:00:00 13.1 2 Sur 9 Nordeste 0 -- -- 38
2018-02-15 08:00:00 12.8 3 Norte 7 Oeste 0 -- -- 32
2018-02-15 07:00:00 13 5 Nordeste 10 Norte 0 -- -- 33
2018-02-15 06:00:00 12.2 3 Norte 13 Sudoeste 0 -- -- 35
2018-02-15 05:00:00 11.6 6 Sudoeste 14 Sudoeste 0 -- -- 39
2018-02-15 04:00:00 11.2 8 Sudoeste 13 Sudoeste 0 -- -- 42
2018-02-15 03:00:00 11.7 5 Sudoeste 14 Sudoeste 0 -- -- 43
2018-02-15 02:00:00 11.7 6 Sudoeste 14 Sudoeste 0 -- -- 45
2018-02-15 01:00:00 11.5 4 Sudoeste 10 Oeste 0 -- -- 45
2018-02-15 00:00:00 11.4 3 Sur 10 Sur 0 -- -- 45
2018-02-14 23:00:00 11.5 5 Sur 16 Sudeste 0 -- -- 43
2018-02-14 22:00:00 11.4 7 Sur 16 Sudeste 0 -- -- 44
2018-02-14 21:00:00 11.2 13 Sudeste 22 Sudeste 0 -- -- 52
2018-02-14 20:00:00 11.1 13 Sudeste 18 Sudeste 0 -- -- 53
2018-02-14 19:00:00 13.9 2 Sudoeste 8 Sudoeste 0 -- -- 72
2018-02-14 18:00:00 17.1 4 Sur 23 Sur 0 -- -- 64
2018-02-14 17:00:00 17.8 12 Sur 26 Sudeste 0 -- -- 50
2018-02-14 16:00:00 17.9 12 Sur 19 Sur 0 -- -- 50
2018-02-14 15:00:00 19.3 10 Sudeste 28 Sudeste 0 -- -- 55
2018-02-14 14:00:00 17.9 14 Sur 30 Sur 0 -- -- 43
2018-02-14 13:00:00 17.8 14 Sur 30 Sudeste 0 -- -- 47
2018-02-14 12:00:00 17.3 12 Sur 21 Sudeste 0 -- -- 48
2018-02-14 11:00:00 16.2 13 Sur 18 Sudeste 0 -- -- 44
2018-02-14 10:00:00 13.9 7 Sudeste 10 Sudeste 0 -- -- 56
2018-02-14 09:00:00 10.4 4 Sur 8 Sudoeste 0 -- -- 61
2018-02-14 08:00:00 9.2 4 Nordeste 10 Nordeste 0 -- -- 88
2018-02-14 07:00:00 9.5 3 Este 13 Sudoeste 0 -- -- 72
2018-02-14 06:00:00 9 9 Sur 14 Sudoeste 0 -- -- 53
2018-02-14 05:00:00 9.5 7 Sudoeste 14 Sudoeste 0 -- -- 52
2018-02-14 04:00:00 9 8 Sudoeste 13 Sudoeste 0 -- -- 60
2018-02-14 03:00:00 8.8 5 Sudoeste 10 Sudoeste 0 -- -- 97
2018-02-14 02:00:00 9.4 5 Norte 8 Nordeste 0 -- -- 98
2018-02-14 01:00:00 9.7 4 Sudoeste 10 Nordeste 0 -- -- 98
2018-02-14 00:00:00 9 6 Sudoeste 10 Sudoeste 0 -- -- 96
2018-02-13 23:00:00 9.4 2 Oeste 9 Norte 0 -- -- 98
2018-02-13 22:00:00 9.5 3 Oeste 7 Norte 0 -- -- 97
2018-02-13 21:00:00 9.8 6 Norte 9 Norte 0 -- -- 96
2018-02-13 20:00:00 10.3 5 Norte 9 Sudoeste 0 -- -- 94
2018-02-13 19:00:00 11.2 3 Sur 8 Sur 0 -- -- 93
2018-02-13 18:00:00 12.1 3 Este 9 Este 0 -- -- 91
2018-02-13 17:00:00 12.5 3 Este 10 Sudeste 0 -- -- 87
2018-02-13 16:00:00 13.1 4 Este 13 Este 0 -- -- 79
2018-02-13 15:00:00 13.2 3 Nordeste 10 Sudeste 0 -- -- 83
2018-02-13 14:00:00 13.6 4 Nordeste 16 Norte 0 -- -- 78
2018-02-13 13:00:00 14.2 5 Este 19 Sudeste 0 -- -- 71
2018-02-13 12:00:00 15.5 10 Sudeste 19 Sur 0 -- -- 71
2018-02-13 11:00:00 11.2 4 Norte 10 Norte 0 -- -- 93
2018-02-13 10:00:00 10.8 3 Noroeste 8 Norte 0 -- -- 95
2018-02-13 09:00:00 10.2 3 Sudeste 13 Sudeste 0 -- -- 99
2018-02-13 08:00:00 9.9 6 Este 13 Sudeste 0 -- -- 99
2018-02-13 07:00:00 10 3 Este 13 Nordeste 0 -- -- 99
2018-02-13 06:00:00 10 7 Este 19 Sudeste 0 -- -- 98
2018-02-13 05:00:00 9.9 4 Este 19 Este 0 -- -- 98
2018-02-13 04:00:00 9.8 6 Sudeste 18 Este 0 -- -- 97
2018-02-13 03:00:00 9.9 5 Sudeste 15 Este 0 -- -- 98
2018-02-13 02:00:00 10 4 Sudeste 13 Este 0 -- -- 98
2018-02-13 01:00:00 10.1 5 Sur 14 Sudeste 0 -- -- 98
2018-02-13 00:00:00 10 7 Sudeste 17 Sudeste 0 -- -- 97
2018-02-12 23:00:00 10 7 Este 21 Sudeste 0 -- -- 97
2018-02-12 22:00:00 10 9 Sudeste 21 Este 0 -- -- 98
2018-02-12 21:00:00 10.2 9 Sudeste 22 Nordeste 0 -- -- 97
2018-02-12 20:00:00 10.2 6 Este 18 Este 0 -- -- 96
2018-02-12 19:00:00 10.2 7 Este 18 Este 0 -- -- 94
2018-02-12 18:00:00 10.4 6 Sudeste 16 Sudeste 0 -- -- 93
2018-02-12 17:00:00 10.8 4 Este 12 Nordeste 0 -- -- 93
2018-02-12 16:00:00 11.2 3 Oeste 11 Norte 0 -- -- 91
2018-02-12 15:00:00 13.2 5 Sudoeste 14 Sudeste 0 -- -- 81
2018-02-12 14:00:00 11.8 5 Este 15 Sudeste 0 -- -- 84
2018-02-12 13:00:00 12.3 10 Este 23 Sudeste 0 -- -- 86
2018-02-12 12:00:00 12.1 3 Sudeste 14 Oeste 0 -- -- 87
2018-02-12 11:00:00 11.5 5 Sudeste 17 Este 0 -- -- 90
2018-02-12 10:00:00 10.6 4 Sudeste 14 Este 0 -- -- 94
2018-02-12 09:00:00 9.9 5 Este 16 Sudeste 0 -- -- 95
2018-02-12 08:00:00 9.5 6 Este 18 Este 0 -- -- 94
2018-02-12 07:00:00 9.5 8 Sudeste 19 Sudeste 0 -- -- 94
2018-02-12 06:00:00 9.3 7 Sudeste 19 Este 0 -- -- 92
2018-02-12 05:00:00 9.2 5 Este 16 Este 0 -- -- 96
2018-02-12 04:00:00 9.7 3 Sudeste 12 Sudeste 0 -- -- 96
2018-02-12 03:00:00 9.4 5 Sudeste 19 Este 0 -- -- 91
2018-02-12 02:00:00 9.6 5 Sudeste 15 Este 0 -- -- 95
2018-02-12 01:00:00 9.6 5 Sur 18 Sudeste 0 -- -- 96
2018-02-12 00:00:00 9.7 5 Sudeste 19 Este 0 -- -- 95
2018-02-11 23:00:00 9.5 6 Sudeste 19 Nordeste 0 -- -- 93
2018-02-11 22:00:00 9.4 6 Sudeste 17 Nordeste 0 -- -- 90
2018-02-11 21:00:00 9.4 5 Sudeste 20 Nordeste 0 -- -- 96
2018-02-11 20:00:00 9.9 8 Sudeste 21 Sudeste 0 -- -- 98
2018-02-11 19:00:00 10 7 Sudeste 23 Sudeste 0 -- -- 96
2018-02-11 18:00:00 10.1 8 Sudeste 23 Sudeste 0 -- -- 92
2018-02-11 17:00:00 10.4 9 Sudeste 22 Sudeste 0 -- -- 89
2018-02-11 16:00:00 10.5 11 Sudeste 24 Este 0 -- -- 91
2018-02-11 15:00:00 10.3 8 Sudeste 28 Este 0 -- -- 95
2018-02-11 14:00:00 10.9 9 Sur 24 Sudeste 0 -- -- 95
2018-02-11 13:00:00 12.4 9 Sudeste 22 Sudeste 0 -- -- 84
2018-02-11 12:00:00 11.2 11 Este 26 Este 0 -- -- 91
2018-02-11 11:00:00 11.3 10 Este 27 Este 0 -- -- 92
2018-02-11 10:00:00 10.1 8 Sudeste 25 Nordeste 0 -- -- 93
2018-02-11 09:00:00 9.7 8 Sudeste 27 Este 0 -- -- 90
2018-02-11 08:00:00 9.2 11 Sudeste 28 Nordeste 0 -- -- 97
2018-02-11 07:00:00 8.9 10 Sudeste 31 Sudeste 0 -- -- 96
2018-02-11 06:00:00 9 9 Sudeste 24 Este 0 -- -- 98
2018-02-11 05:00:00 8.9 9 Este 28 Este 0 -- -- 99
2018-02-11 04:00:00 9.1 10 Este 28 Este 0 -- -- 100
2018-02-11 03:00:00 9.2 6 Sudeste 19 Este 0 -- -- 100
2018-02-11 02:00:00 8.8 8 Este 28 Este 0 -- -- 100
2018-02-11 01:00:00 9.1 12 Este 30 Sudeste 0 -- -- 100
2018-02-11 00:00:00 9.5 10 Sudeste 27 Este 0 -- -- 100
2018-02-10 23:00:00 10.3 13 Sudeste 31 Este 0.2 -- -- 100
2018-02-10 22:00:00 10.5 12 Este 31 Este 0 -- -- 100
2018-02-10 21:00:00 11.3 14 Sudeste 35 Sudeste 0.4 -- -- 100
2018-02-10 20:00:00 11.1 9 Sudeste 31 Este 0 -- -- 100
2018-02-10 19:00:00 10.5 7 Sudeste 26 Este 0 -- -- 100
2018-02-10 18:00:00 11.2 8 Sudeste 23 Este 0 -- -- 100
2018-02-10 17:00:00 11.7 6 Sudeste 14 Nordeste 0 -- -- 100
2018-02-10 16:00:00 12 5 Sudeste 24 Noroeste 0 -- -- 100
2018-02-10 15:00:00 12.3 4 Este 15 Este 0 -- -- 100
2018-02-10 14:00:00 11.8 5 Sudeste 18 Este 0 -- -- 100
2018-02-10 13:00:00 11.8 6 Sur 22 Nordeste 0 -- -- 100
2018-02-10 12:00:00 11.4 6 Este 18 Sudeste 0 -- -- 100
2018-02-10 11:00:00 10.7 9 Sudeste 24 Nordeste 0.2 -- -- 100
2018-02-10 10:00:00 10.3 7 Sudeste 22 Este 0 -- -- 100
2018-02-10 09:00:00 10 7 Sudeste 19 Sudeste 0 -- -- 100
2018-02-10 08:00:00 9.8 6 Sudeste 29 Sudeste 0 -- -- 100
2018-02-10 07:00:00 9.6 6 Este 21 Nordeste 0 -- -- 100
2018-02-10 06:00:00 9.7 7 Este 25 Este 0 -- -- 100
2018-02-10 05:00:00 9.9 10 Este 28 Nordeste 0 -- -- 100
2018-02-10 04:00:00 9.8 8 Sudeste 24 Nordeste 0 -- -- 100
2018-02-10 03:00:00 9.6 10 Este 21 Este 0 -- -- 100
2018-02-10 02:00:00 9.4 9 Este 27 Nordeste 0 -- -- 100
2018-02-10 01:00:00 9.6 9 Sudeste 31 Sudeste 0 -- -- 100
2018-02-10 00:00:00 9.5 9 Este 31 Sudeste 0 -- -- 100
2018-02-09 23:00:00 9.7 12 Este 32 Este 0 -- -- 100
2018-02-09 22:00:00 9.5 10 Este 30 Nordeste 0 -- -- 100
2018-02-09 21:00:00 9.6 9 Sudeste 24 Este 0 -- -- 99
2018-02-09 20:00:00 9.8 10 Sudeste 28 Nordeste 0 -- -- 98
2018-02-09 19:00:00 9.5 8 Sudeste 27 Este 0 -- -- 97
2018-02-09 18:00:00 9.9 8 Este 24 Este 0 -- -- 96
2018-02-09 17:00:00 10.5 8 Sudeste 30 Sudeste 0 -- -- 93
2018-02-09 16:00:00 10.1 9 Este 37 Este 0 -- -- 96
2018-02-09 15:00:00 10.4 10 Sudeste 32 Este 0 -- -- 97
2018-02-09 14:00:00 10.7 12 Este 28 Este 0 -- -- 97
2018-02-09 13:00:00 9.8 12 Este 29 Este 0 -- -- 99
2018-02-09 12:00:00 10 9 Este 34 Este 0 -- -- 100
2018-02-09 11:00:00 9.6 7 Este 31 Este 0 -- -- 100
2018-02-09 10:00:00 9 13 Este 36 Nordeste 0.6 -- -- 100
2018-02-09 09:00:00 8.6 8 Sudeste 30 Este 2.2 -- -- 99
2018-02-09 08:00:00 8.4 8 Sudeste 33 Nordeste 0 -- -- 99
2018-02-09 07:00:00 8.2 10 Este 40 Este 0 -- -- 98
2018-02-09 06:00:00 9 15 Este 37 Nordeste 0 -- -- 97
2018-02-09 05:00:00 8.4 10 Este 30 Este 0 -- -- 97
2018-02-09 04:00:00 8.3 15 Este 33 Nordeste 0 -- -- 96
2018-02-09 03:00:00 8.4 11 Este 32 Sudeste 0 -- -- 98
2018-02-09 02:00:00 8.4 10 Sudeste 38 Este 0.2 -- -- 98
2018-02-09 01:00:00 8.7 10 Este 32 Este 0 -- -- 96
2018-02-09 00:00:00 8.4 9 Este 32 Nordeste 0 -- -- 97
2018-02-08 23:00:00 8.1 14 Este 34 Sudeste 0.4 -- -- 96
2018-02-08 22:00:00 8.9 12 Sudeste 33 Sudeste 0 -- -- 88
2018-02-08 21:00:00 8.8 13 Este 39 Este 0 -- -- 86
2018-02-08 20:00:00 8.7 14 Este 37 Este 0 -- -- 85
2018-02-08 19:00:00 8.7 11 Sudeste 40 Este 0 -- -- 92
2018-02-08 18:00:00 9.3 13 Sudeste 32 Sudeste 0 -- -- 81
2018-02-08 17:00:00 10.2 14 Sudeste 32 Este 0 -- -- 75
2018-02-08 16:00:00 9.6 13 Sudeste 32 Sur 0 -- -- 86
2018-02-08 15:00:00 10.4 10 Sudeste 37 Este 0 -- -- 88
2018-02-08 14:00:00 10 13 Sur 34 Este 0 -- -- 82
2018-02-08 13:00:00 10.2 11 Sur 33 Sur 0.2 -- -- 85
2018-02-08 12:00:00 9.1 11 Sur 32 Sudeste 0.4 -- -- 90
2018-02-08 11:00:00 9.1 14 Sur 35 Sudeste 0 -- -- 82
2018-02-08 10:00:00 8.5 16 Sudoeste 37 Sudoeste 0 -- -- 89
2018-02-08 09:00:00 8 15 Sudoeste 35 Sur 0 -- -- 82
2018-02-08 08:00:00 7.8 14 Sudoeste 38 Sur 0 -- -- 84
2018-02-08 07:00:00 7.6 14 Sudoeste 32 Sudoeste 0 -- -- 87
2018-02-08 06:00:00 7.6 17 Sudoeste 37 Sur 0 -- -- 86
2018-02-08 05:00:00 7.6 15 Sudoeste 38 Sur 0 -- -- 90
2018-02-08 04:00:00 7.3 17 Sudoeste 38 Sudeste 0.2 -- -- 93
2018-02-08 03:00:00 7.8 13 Sudoeste 38 Sur 0 -- -- 93
2018-02-08 02:00:00 7.7 14 Sudoeste 37 Sudeste 0 -- -- 94
2018-02-08 01:00:00 7.6 12 Sur 33 Norte 1.4 -- -- 99
2018-02-08 00:00:00 8 8 Sur 32 Sur 0 -- -- 99
2018-02-07 23:00:00 8.1 8 Sudoeste 52 Nordeste 2.2 -- -- 99
2018-02-07 22:00:00 8.2 11 Sudoeste 42 Norte 0.4 -- -- 98
2018-02-07 21:00:00 8.8 12 Sudoeste 48 Nordeste 0.4 -- -- 96
2018-02-07 20:00:00 9.1 15 Sudoeste 52 Nordeste 0 -- -- 88
2018-02-07 19:00:00 9.2 13 Este 41 Nordeste 0 -- -- 87
2018-02-07 18:00:00 9.6 11 Nordeste 40 Nordeste 0 -- -- 87
2018-02-07 17:00:00 9.9 14 Nordeste 35 Norte 0 -- -- 89
2018-02-07 16:00:00 10.4 9 Sudoeste 28 Norte 0.2 -- -- 88
2018-02-07 15:00:00 10.1 11 Norte 34 Norte 0 -- -- 93
2018-02-07 14:00:00 10.3 8 Este 32 Norte 0 -- -- 96
2018-02-07 13:00:00 11.1 8 Norte 35 Norte 0 -- -- 93
2018-02-07 12:00:00 10.3 9 Norte 33 Norte 0 -- -- 95
2018-02-07 11:00:00 10.9 8 Norte 26 Nordeste 0 -- -- 89
2018-02-07 10:00:00 10.2 7 Sudoeste 22 Sur 0 -- -- 85
2018-02-07 09:00:00 9.3 9 Oeste 30 Sur 0 -- -- 89
2018-02-07 08:00:00 9.1 10 Sudoeste 24 Sudeste 0 -- -- 94
2018-02-07 07:00:00 8.3 7 Oeste 35 Oeste 0 -- -- 92
2018-02-07 06:00:00 8.8 9 Sur 21 Sudeste 0 -- -- 98
2018-02-07 05:00:00 8.8 6 Sur 19 Este 0 -- -- 97
2018-02-07 04:00:00 8.3 7 Sudoeste 23 Sur 0.6 -- -- 96
2018-02-07 03:00:00 9 6 Sur 23 Este 0 -- -- 91
2018-02-07 02:00:00 9 9 Sudeste 24 Sudoeste 0 -- -- 92
2018-02-07 01:00:00 8.8 10 Sur 25 Nordeste 0 -- -- 96
2018-02-07 00:00:00 8.8 9 Sur 18 Sur 0 -- -- 97
2018-02-06 23:00:00 8.4 7 Sudeste 40 Oeste 0 -- -- 96
2018-02-06 22:00:00 9 10 Sur 26 Este 0 -- -- 88
2018-02-06 21:00:00 9.2 11 Sur 27 Sur 0 -- -- 88
2018-02-06 20:00:00 9.3 9 Sudeste 30 Nordeste 0 -- -- 87
2018-02-06 19:00:00 9.3 9 Sudeste 25 Este 0 -- -- 85
2018-02-06 18:00:00 9.7 9 Sudeste 29 Sudeste 0 -- -- 83
2018-02-06 17:00:00 10.4 12 Sudeste 25 Sudeste 0 -- -- 83
2018-02-06 16:00:00 11.4 10 Sudeste 30 Este 0 -- -- 81
2018-02-06 15:00:00 12.7 9 Sur 30 Este 0 -- -- 69
2018-02-06 14:00:00 12.5 10 Sudeste 29 Sudeste 0 -- -- 70
2018-02-06 13:00:00 13.1 14 Sudeste 29 Este 0 -- -- 72
2018-02-06 12:00:00 12.3 10 Sudeste 30 Sudeste 0 -- -- 70
2018-02-06 11:00:00 11.7 10 Sudeste 25 Sudoeste 0 -- -- 71
2018-02-06 10:00:00 9.7 13 Sur 28 Sudeste 0 -- -- 80
2018-02-06 09:00:00 9 11 Sudeste 29 Este 0 -- -- 93
2018-02-06 08:00:00 8.8 10 Sudeste 26 Sudeste 0 -- -- 95
2018-02-06 07:00:00 8.7 8 Sur 27 Este 0 -- -- 94
2018-02-06 06:00:00 8.8 11 Sudeste 24 Nordeste 0 -- -- 94
2018-02-06 05:00:00 9 9 Sur 18 Sudeste 0 -- -- 94
2018-02-06 04:00:00 8.4 5 Sudeste 16 Este 0 -- -- 94
2018-02-06 03:00:00 9.1 7 Sur 19 Nordeste 0 -- -- 92
2018-02-06 02:00:00 8.9 7 Sudoeste 18 Sudoeste 0 -- -- 88
2018-02-06 01:00:00 9.1 7 Sudoeste 17 Sur 0 -- -- 88
2018-02-06 00:00:00 9.1 8 Sudoeste 15 Este 0 -- -- 90
2018-02-05 23:00:00 9.1 8 Sudeste 18 Sudeste 0 -- -- 89
2018-02-05 22:00:00 8.9 7 Sudeste 19 Nordeste 0 -- -- 87
2018-02-05 21:00:00 9.2 7 Sudeste 26 Nordeste 0 -- -- 88
2018-02-05 20:00:00 9.2 9 Sudoeste 37 Nordeste 0 -- -- 83
2018-02-05 19:00:00 9.3 12 Oeste 35 Nordeste 0 -- -- 81
2018-02-05 18:00:00 9.6 13 Sudoeste 39 Noroeste 0 -- -- 80
2018-02-05 17:00:00 10.2 9 Nordeste 42 Norte 0 -- -- 78
2018-02-05 16:00:00 10.5 9 Oeste 38 Nordeste 0 -- -- 86
2018-02-05 15:00:00 10.4 8 Sudoeste 26 Sudeste 0 -- -- 94
2018-02-05 14:00:00 10.2 10 Sudoeste 25 Sudoeste 0 -- -- 97
2018-02-05 13:00:00 10.3 8 Sur 27 Sudoeste 0 -- -- 100
2018-02-05 12:00:00 10.1 7 Sudoeste 21 Sur 0 -- -- 100
2018-02-05 11:00:00 9.8 7 Sur 22 Este 0 -- -- 100
2018-02-05 10:00:00 9.8 10 Sur 26 Sudeste 1 -- -- 100
2018-02-05 09:00:00 10.1 8 Sur 33 Norte 0 -- -- 100
2018-02-05 08:00:00 10.2 11 Sudoeste 38 Norte 0.8 -- -- 100
2018-02-05 07:00:00 9.9 10 Noroeste 43 Norte 0.6 -- -- 100
2018-02-05 06:00:00 9.9 11 Nordeste 44 Nordeste 0 -- -- 100
2018-02-05 05:00:00 10.1 12 Noroeste 36 Nordeste 0 -- -- 100
2018-02-05 04:00:00 9.9 11 Sudoeste 38 Nordeste 0 -- -- 100
2018-02-05 03:00:00 9.9 8 Sudoeste 27 Nordeste 0 -- -- 100
2018-02-05 02:00:00 9.6 9 Sur 32 Norte 1 -- -- 100
2018-02-05 01:00:00 9.8 8 Sur 18 Este 0 -- -- 100
2018-02-05 00:00:00 9.8 10 Sur 28 Sudeste 0 -- -- 100
2018-02-04 23:00:00 10.4 8 Sur 27 Este 0 -- -- 100
2018-02-04 22:00:00 10.4 7 Sudeste 26 Noroeste 0 -- -- 100
2018-02-04 21:00:00 10.4 5 Sur 21 Este 0 -- -- 100
2018-02-04 20:00:00 10 6 Sudoeste 24 Sudeste 0 -- -- 100
2018-02-04 19:00:00 10.3 6 Sudoeste 17 Sudeste 0 -- -- 98
2018-02-04 18:00:00 10.6 6 Sur 19 Sudeste 0 -- -- 97
2018-02-04 17:00:00 11.1 9 Sur 19 Sudeste 0 -- -- 93
2018-02-04 16:00:00 12.1 6 Sur 16 Sudeste 0 -- -- 90
2018-02-04 15:00:00 12.7 5 Sudeste 19 Sudeste 0 -- -- 96
2018-02-04 14:00:00 11.4 6 Este 26 Sudeste 0 -- -- 98
2018-02-04 13:00:00 11.3 9 Sudeste 21 Este 0 -- -- 100
2018-02-04 12:00:00 11.1 9 Este 22 Este 0.4 -- -- 100
2018-02-04 11:00:00 10.7 4 Sudeste 14 Este 0.2 -- -- 100
2018-02-04 10:00:00 9.4 4 Sudeste 18 Sudeste 0 -- -- 100
2018-02-04 09:00:00 9.4 6 Sudeste 30 Este 0.2 -- -- 100
2018-02-04 08:00:00 9.7 6 Sudeste 24 Nordeste 0 -- -- 100
2018-02-04 07:00:00 9.7 10 Este 24 Este 0.6 -- -- 100
2018-02-04 06:00:00 9.2 10 Este 31 Sudeste 0 -- -- 99
2018-02-04 05:00:00 9 7 Este 31 Este 0 -- -- 99
2018-02-04 04:00:00 9.1 13 Este 33 Sudeste 0 -- -- 99
2018-02-04 03:00:00 8.7 12 Este 32 Nordeste 0.8 -- -- 100
2018-02-04 02:00:00 9 11 Sudeste 30 Este 0 -- -- 100
2018-02-04 01:00:00 9.1 10 Este 27 Nordeste 0 -- -- 100
2018-02-04 00:00:00 9.2 9 Sudeste 33 Este 0 -- -- 100
2018-02-03 23:00:00 9.8 11 Sudeste 26 Este 0 -- -- 100
2018-02-03 22:00:00 9.7 11 Sudeste 30 Este 0 -- -- 100
2018-02-03 21:00:00 10.1 10 Sudeste 36 Este 0 -- -- 100
2018-02-03 20:00:00 9.2 14 Sudeste 37 Sudeste 0 -- -- 100
2018-02-03 19:00:00 9.4 11 Sudeste 34 Este 0 -- -- 100
2018-02-03 18:00:00 9.8 12 Este 32 Sudeste 0 -- -- 100
2018-02-03 17:00:00 9.6 10 Sudeste 32 Sudeste 1 -- -- 100
2018-02-03 16:00:00 10.3 5 Sudeste 23 Sudeste 0.4 -- -- 99
2018-02-03 15:00:00 10.2 11 Este 24 Este 0 -- -- 98
2018-02-03 14:00:00 10.2 8 Este 28 Este 0 -- -- 100
2018-02-03 13:00:00 10 13 Sudeste 29 Nordeste 0 -- -- 100
2018-02-03 12:00:00 9.9 13 Sudeste 33 Sudeste 0.6 -- -- 100
2018-02-03 11:00:00 9.9 11 Sudeste 32 Sudeste 0.2 -- -- 100
2018-02-03 10:00:00 9.5 9 Este 28 Este 0 -- -- 100
2018-02-03 09:00:00 9.2 12 Este 33 Este 0.2 -- -- 100
2018-02-03 08:00:00 9.1 12 Este 33 Este 0 -- -- 100
2018-02-03 07:00:00 9 10 Sudeste 40 Este 0 -- -- 100
2018-02-03 06:00:00 9.1 12 Sudeste 35 Sudeste 0.2 -- -- 100
2018-02-03 05:00:00 9 14 Este 43 Sudeste 0.2 -- -- 100
2018-02-03 04:00:00 9.3 12 Sudeste 38 Este 0 -- -- 100
2018-02-03 03:00:00 9.4 16 Este 40 Este 0.2 -- -- 100
2018-02-03 02:00:00 9.6 11 Sudeste 32 Este 2.2 -- -- 100
2018-02-03 01:00:00 9.3 14 Sur 38 Este 0.2 -- -- 100
2018-02-03 00:00:00 9.7 12 Sur 32 Nordeste 2 -- -- 100
2018-02-02 23:00:00 8.9 10 Sudeste 30 Sur 0 -- -- 100
2018-02-02 22:00:00 9.4 11 Sudeste 33 Nordeste 0 -- -- 100
2018-02-02 21:00:00 9.4 11 Sur 26 Este 0 -- -- 100
2018-02-02 20:00:00 9.4 10 Sudeste 24 Nordeste 0 -- -- 100
2018-02-02 19:00:00 9.6 13 Sudeste 32 Este 0 -- -- 100
2018-02-02 18:00:00 9.9 11 Sudeste 38 Sudeste 0.4 -- -- 100
2018-02-02 17:00:00 10.1 10 Sudeste 33 Este 0 -- -- 100
2018-02-02 16:00:00 10.2 11 Sur 28 Sudeste 0 -- -- 100
2018-02-02 15:00:00 10.6 11 Sudeste 33 Este 0.2 -- -- 100
2018-02-02 14:00:00 10.5 12 Sudeste 32 Este 0.6 -- -- 100
2018-02-02 13:00:00 10.7 6 Sudeste 28 Este 0 -- -- 100
2018-02-02 12:00:00 10.6 13 Este 32 Este 0.8 -- -- 100
2018-02-02 11:00:00 9.9 10 Sur 33 Sudeste 0.2 -- -- 100
2018-02-02 10:00:00 10.3 11 Sudeste 31 Este 0 -- -- 100
2018-02-02 09:00:00 10.3 11 Sur 27 Este 0 -- -- 100
2018-02-02 08:00:00 10 10 Sur 25 Sudeste 0 -- -- 99
2018-02-02 07:00:00 10.3 8 Sudeste 26 Nordeste 0 -- -- 100
2018-02-02 06:00:00 9.7 8 Sudeste 30 Este 1.4 -- -- 99
2018-02-02 05:00:00 10 10 Sur 24 Sudeste 0 -- -- 96
2018-02-02 04:00:00 9.9 9 Sudeste 26 Sur 0 -- -- 96
2018-02-02 03:00:00 9.9 10 Sudeste 26 Este 0 -- -- 97
2018-02-02 02:00:00 9.9 9 Sur 27 Sudeste 0 -- -- 99
2018-02-02 01:00:00 10 12 Sur 29 Sudeste 0 -- -- 100
2018-02-02 00:00:00 10.1 13 Sur 31 Sudeste 0 -- -- 100
2018-02-01 23:00:00 10.3 9 Sur 29 Este 0 -- -- 100
2018-02-01 22:00:00 10.3 12 Sur 34 Nordeste 0 -- -- 99
2018-02-01 21:00:00 10 9 Sudeste 24 Nordeste 0 -- -- 99
2018-02-01 20:00:00 10 9 Sur 28 Sudeste 0 -- -- 99
2018-02-01 19:00:00 10 10 Sur 30 Sudeste 0 -- -- 99
2018-02-01 18:00:00 10.6 10 Sudoeste 26 Sudeste 0 -- -- 98
2018-02-01 17:00:00 10.6 9 Sur 20 Sudeste 0 -- -- 94
2018-02-01 16:00:00 10.1 4 Sur 27 Sudeste 0 -- -- 97
2018-02-01 15:00:00 11.2 9 Sudoeste 22 Sudeste 0 -- -- 94
2018-02-01 14:00:00 11.8 9 Sudeste 24 Sudeste 0 -- -- 88
2018-02-01 13:00:00 11.4 8 Sudeste 21 Nordeste 0 -- -- 92
2018-02-01 12:00:00 11.6 9 Sudeste 24 Sudeste 0 -- -- 89
2018-02-01 11:00:00 10.6 10 Sudeste 23 Este 0.2 -- -- 96
2018-02-01 10:00:00 9.6 10 Sudeste 21 Sudeste 0 -- -- 98
2018-02-01 09:00:00 9.5 8 Sur 27 Sudeste 0 -- -- 99
2018-02-01 08:00:00 9.7 8 Sur 23 Este 0.4 -- -- 99
2018-02-01 07:00:00 9.4 8 Sudoeste 16 Sur 0 -- -- 98
2018-02-01 06:00:00 9.6 6 Sudoeste 28 Sur 0 -- -- 97
2018-02-01 05:00:00 9.4 10 Sudoeste 25 Sudoeste 0 -- -- 88
2018-02-01 04:00:00 9.2 10 Sur 25 Sur 0 -- -- 90
2018-02-01 03:00:00 9.2 10 Sur 21 Sudeste 0 -- -- 91
2018-02-01 02:00:00 9.1 9 Sudeste 25 Sur 0 -- -- 92
2018-02-01 01:00:00 9.3 9 Sudeste 26 Sudeste 0 -- -- 97
2018-02-01 00:00:00 9.8 9 Sur 26 Nordeste 0 -- -- 99
2018-01-31 23:00:00 9.9 10 Sur 23 Sur 0 -- -- 100
2018-01-31 22:00:00 10.1 12 Sudoeste 57 Sudeste 0 -- -- 100
2018-01-31 21:00:00 10.2 15 Nordeste 41 Nordeste 0 -- -- 100
2018-01-31 20:00:00 10.3 12 Nordeste 43 Nordeste 0 -- -- 100
2018-01-31 19:00:00 10.4 12 Norte 45 Este 0.2 -- -- 100
2018-01-31 18:00:00 10.2 17 Este 52 Nordeste 4.2 -- -- 100
2018-01-31 17:00:00 10.2 10 Norte 48 Norte 1 -- -- 100
2018-01-31 16:00:00 10.3 12 Sudoeste 27 Sudeste 0 -- -- 100
2018-01-31 15:00:00 9.8 7 Sudoeste 40 Nordeste 5 -- -- 100
2018-01-31 14:00:00 10.7 13 Norte 33 Norte 0.2 -- -- 100
2018-01-31 13:00:00 10.2 8 Sudoeste 27 Este 1.4 -- -- 98
2018-01-31 12:00:00 10.9 11 Sur 36 Norte 0 -- -- 98
2018-01-31 11:00:00 10.8 12 Norte 33 Este 2.4 -- -- 98
2018-01-31 10:00:00 10.4 12 Nordeste 34 Norte 0 -- -- 95
2018-01-31 09:00:00 9.8 6 Oeste 29 Este 0 -- -- 93
2018-01-31 08:00:00 9.2 8 Norte 23 Norte 0 -- -- 91
2018-01-31 07:00:00 8.6 5 Sudeste 17 Noroeste 0 -- -- 89
2018-01-31 06:00:00 8.7 5 Sudoeste 14 Sudoeste 0 -- -- 91
2018-01-31 05:00:00 8.9 6 Sur 16 Este 0 -- -- 96
2018-01-31 04:00:00 8.9 6 Este 17 Este 0 -- -- 97
2018-01-31 03:00:00 8.9 6 Sudeste 22 Este 0 -- -- 96
2018-01-31 02:00:00 8.8 6 Sudeste 19 Sudeste 0 -- -- 91
2018-01-31 01:00:00 8.4 7 Este 18 Este 0 -- -- 90
2018-01-31 00:00:00 8.5 7 Sudeste 21 Sudeste 0 -- -- 88
2018-01-30 23:00:00 9 7 Sudeste 21 Este 0 -- -- 93
2018-01-30 22:00:00 9.1 8 Sudeste 20 Este 0 -- -- 94
2018-01-30 21:00:00 9.2 7 Sur 21 Este 0 -- -- 94
2018-01-30 20:00:00 9.2 8 Sudoeste 18 Sudeste 0 -- -- 94
2018-01-30 19:00:00 9.2 8 Sudeste 22 Sudeste 0 -- -- 93
2018-01-30 18:00:00 9.3 9 Sudeste 27 Nordeste 0 -- -- 93
2018-01-30 17:00:00 9.7 9 Sudeste 24 Este 0 -- -- 96
2018-01-30 16:00:00 10.2 8 Sudeste 22 Sur 0 -- -- 96
2018-01-30 15:00:00 10.2 9 Sudoeste 22 Sudeste 0 -- -- 96
2018-01-30 14:00:00 10 7 Sur 28 Sur 0 -- -- 99
2018-01-30 13:00:00 9.8 9 Nordeste 36 Noroeste 0.4 -- -- 99
2018-01-30 12:00:00 10.7 10 Norte 29 Noroeste 0 -- -- 98
2018-01-30 11:00:00 9.2 10 Sudeste 27 Norte 4.2 -- -- 100
2018-01-30 10:00:00 9.9 9 Norte 31 Oeste 0 -- -- 99
2018-01-30 09:00:00 10.1 10 Nordeste 37 Norte 0 -- -- 99
2018-01-30 08:00:00 9.7 11 Norte 35 Nordeste 0 -- -- 99
2018-01-30 07:00:00 9.8 10 Norte 35 Norte 0 -- -- 99
2018-01-30 06:00:00 9.6 13 Norte 30 Norte 0.2 -- -- 98
2018-01-30 05:00:00 9 9 Nordeste 26 Norte 0.8 -- -- 97
2018-01-30 04:00:00 8.9 9 Norte 25 Norte 0 -- -- 90
2018-01-30 03:00:00 8.6 6 Norte 18 Norte 0 -- -- 90
2018-01-30 02:00:00 8.4 8 Norte 18 Norte 0 -- -- 89
2018-01-30 01:00:00 8.6 3 Sudoeste 14 Sudoeste 0 -- -- 86
2018-01-30 00:00:00 8.6 6 Sur 16 Sur 0 -- -- 84
2018-01-29 23:00:00 8.8 10 Oeste 28 Noroeste 0 -- -- 87
2018-01-29 22:00:00 8.5 10 Sudoeste 23 Sudoeste 0 -- -- 94
2018-01-29 21:00:00 8.2 4 Oeste 23 Norte 0 -- -- 97
2018-01-29 20:00:00 8.1 7 Sur 25 Este 0.2 -- -- 94
2018-01-29 19:00:00 9.2 6 Sudoeste 21 Sur 0 -- -- 79
2018-01-29 18:00:00 9.7 8 Sudeste 27 Sudeste 0 -- -- 76
2018-01-29 17:00:00 9.7 11 Sur 28 Sur 0 -- -- 83
2018-01-29 16:00:00 9.6 10 Sur 28 Sudoeste 0 -- -- 89
2018-01-29 15:00:00 9.3 11 Sudoeste 39 Nordeste 0 -- -- 91
2018-01-29 14:00:00 9.5 12 Este 39 Nordeste 0 -- -- 90
2018-01-29 13:00:00 9.4 11 Nordeste 38 Norte 0 -- -- 89
2018-01-29 12:00:00 9.7 11 Sur 34 Norte 0 -- -- 93
2018-01-29 11:00:00 11.6 13 Nordeste 30 Nordeste 0 -- -- 70
2018-01-29 10:00:00 10.1 8 Noroeste 36 Nordeste 0 -- -- 70
2018-01-29 09:00:00 9.7 10 Este 36 Este 0 -- -- 80
2018-01-29 08:00:00 9.4 11 Sudeste 24 Nordeste 0 -- -- 79
2018-01-29 07:00:00 9.2 6 Noroeste 23 Norte 0 -- -- 92
2018-01-29 06:00:00 9 5 Sudoeste 12 Sudoeste 0 -- -- 90
2018-01-29 05:00:00 8.6 4 Sudeste 15 Sudeste 0 -- -- 87
2018-01-29 04:00:00 8.2 4 Sudeste 15 Norte 0 -- -- 88
2018-01-29 03:00:00 8.3 6 Este 19 Este 0 -- -- 85
2018-01-29 02:00:00 8.2 5 Sudeste 19 Nordeste 0 -- -- 78
2018-01-29 01:00:00 9 8 Sur 22 Este 0 -- -- 83
2018-01-29 00:00:00 9.2 8 Sudeste 18 Sur 0 -- -- 86
2018-01-28 23:00:00 9.4 9 Sudeste 25 Sudeste 0 -- -- 88
2018-01-28 22:00:00 9 9 Sudeste 25 Este 0 -- -- 85
2018-01-28 21:00:00 9.4 10 Sudeste 26 Nordeste 0 -- -- 89
2018-01-28 20:00:00 9.3 8 Este 28 Este 0 -- -- 88
2018-01-28 19:00:00 8.9 12 Sudeste 33 Sudeste 0 -- -- 84
2018-01-28 18:00:00 9.6 12 Este 33 Nordeste 0 -- -- 86
2018-01-28 17:00:00 9.9 13 Este 33 Este 0 -- -- 91
2018-01-28 16:00:00 10.9 14 Este 35 Este 0 -- -- 86
2018-01-28 15:00:00 11.6 8 Sudeste 30 Sudeste 0 -- -- 80
2018-01-28 14:00:00 12.2 15 Sudeste 35 Este 0 -- -- 80
2018-01-28 13:00:00 11.9 13 Sudeste 46 Nordeste 0 -- -- 88
2018-01-28 12:00:00 11.1 12 Este 35 Este 0 -- -- 93
2018-01-28 11:00:00 10.5 12 Sudeste 32 Este 0 -- -- 97
2018-01-28 10:00:00 10.3 12 Este 34 Este 0 -- -- 94
2018-01-28 09:00:00 10 12 Sudeste 30 Sudeste 0 -- -- 93
2018-01-28 08:00:00 9.5 12 Este 42 Este 0.2 -- -- 95
2018-01-28 07:00:00 9.9 13 Este 34 Sudeste 0 -- -- 93
2018-01-28 06:00:00 9.7 10 Este 32 Sudeste 0 -- -- 93
2018-01-28 05:00:00 9.9 11 Sudeste 35 Nordeste 0 -- -- 83
2018-01-28 04:00:00 10 14 Este 37 Nordeste 0 -- -- 91
2018-01-28 03:00:00 10.1 13 Sudeste 33 Noroeste 0 -- -- 94
2018-01-28 02:00:00 10.1 9 Sudeste 40 Este 0 -- -- 94
2018-01-28 01:00:00 9.8 16 Sudeste 37 Este 0 -- -- 92
2018-01-28 00:00:00 9.6 13 Este 41 Este 0 -- -- 92
2018-01-27 23:00:00 10.3 14 Sudeste 38 Sudeste 0 -- -- 96
2018-01-27 22:00:00 9.9 14 Este 39 Este 0 -- -- 88
2018-01-27 21:00:00 9.9 13 Sudeste 29 Este 0 -- -- 92
2018-01-27 20:00:00 10.2 13 Sudeste 31 Este 0 -- -- 88
2018-01-27 19:00:00 10 11 Sudeste 27 Sudeste 0 -- -- 84
2018-01-27 18:00:00 10.4 7 Sudeste 22 Este 0 -- -- 82
2018-01-27 17:00:00 10.3 13 Sudeste 28 Sudeste 0 -- -- 88
2018-01-27 16:00:00 10.7 11 Sudeste 30 Sudeste 0 -- -- 81
2018-01-27 15:00:00 11.4 9 Sudoeste 27 Sudeste 0 -- -- 85
2018-01-27 14:00:00 11.6 12 Sudeste 30 Este 0 -- -- 85
2018-01-27 13:00:00 12.4 10 Sudeste 31 Este 0 -- -- 73
2018-01-27 12:00:00 10.5 9 Este 30 Este 0 -- -- 87
2018-01-27 11:00:00 11.6 8 Sudeste 32 Este 0 -- -- 75
2018-01-27 10:00:00 9.8 15 Sudeste 31 Sudeste 0 -- -- 92
2018-01-27 09:00:00 10.1 11 Este 34 Este 0 -- -- 91
2018-01-27 08:00:00 9.2 13 Este 38 Nordeste 0 -- -- 90
2018-01-27 07:00:00 9.2 18 Sudeste 36 Este 0 -- -- 80
2018-01-27 06:00:00 9.1 14 Sudeste 44 Sudeste 0 -- -- 80
2018-01-27 05:00:00 8.9 15 Este 40 Este 0 -- -- 80
2018-01-27 04:00:00 9 14 Este 44 Este 0 -- -- 93
2018-01-27 03:00:00 9 14 Este 40 Este 0 -- -- 95
2018-01-27 02:00:00 9.4 14 Este 36 Este 0.2 -- -- 98
2018-01-27 01:00:00 9.1 13 Este 33 Este 0 -- -- 97
2018-01-27 00:00:00 9.9 13 Sudeste 38 Este 0 -- -- 91
2018-01-26 23:00:00 9.7 13 Este 36 Este 0 -- -- 96
2018-01-26 22:00:00 9.8 10 Este 30 Este 0 -- -- 97
2018-01-26 21:00:00 9.6 13 Este 35 Este 0 -- -- 97
2018-01-26 20:00:00 9.9 13 Este 36 Nordeste 0 -- -- 96
2018-01-26 19:00:00 9.8 10 Sudeste 38 Nordeste 0 -- -- 97
2018-01-26 18:00:00 10.5 14 Este 35 Este 0 -- -- 96
2018-01-26 17:00:00 10.8 10 Sudeste 34 Este 0 -- -- 92
2018-01-26 16:00:00 11.7 11 Este 31 Sudeste 0 -- -- 84
2018-01-26 15:00:00 11.5 13 Sudeste 33 Nordeste 0 -- -- 90
2018-01-26 14:00:00 11.6 11 Este 34 Sudeste 0 -- -- 95
2018-01-26 13:00:00 11.1 11 Este 31 Nordeste 0 -- -- 99
2018-01-26 12:00:00 11 15 Este 41 Este 0 -- -- 99
2018-01-26 11:00:00 11.6 11 Sudeste 34 Este 0 -- -- 98
2018-01-26 10:00:00 12.2 13 Sudeste 26 Este 0 -- -- 97
2018-01-26 09:00:00 11.4 7 Sudeste 21 Este 0 -- -- 91
2018-01-26 08:00:00 10.3 12 Este 33 Nordeste 0 -- -- 88
2018-01-26 07:00:00 10.3 11 Sudeste 34 Este 0 -- -- 95
2018-01-26 06:00:00 10.4 11 Este 35 Este 0 -- -- 95
2018-01-26 05:00:00 10.5 11 Sudeste 33 Este 0 -- -- 96
2018-01-26 04:00:00 10.9 10 Sudeste 30 Sudeste 0 -- -- 95
2018-01-26 03:00:00 10.4 8 Este 27 Sudeste 0 -- -- 89
2018-01-26 02:00:00 10.5 9 Este 29 Sudeste 0 -- -- 90
2018-01-26 01:00:00 10.3 11 Este 25 Nordeste 0 -- -- 92
2018-01-26 00:00:00 9.9 8 Sudeste 33 Este 0 -- -- 87
2018-01-25 23:00:00 10 10 Este 27 Este 0 -- -- 90
2018-01-25 22:00:00 10.2 9 Este 23 Sudeste 0 -- -- 92
2018-01-25 21:00:00 10.3 5 Sudeste 18 Este 0 -- -- 91
2018-01-25 20:00:00 10.5 6 Sur 15 Sur 0 -- -- 93
2018-01-25 19:00:00 10.6 6 Sudeste 14 Sudeste 0 -- -- 91
2018-01-25 18:00:00 11.1 4 Sudeste 17 Nordeste 0 -- -- 90
2018-01-25 17:00:00 11.5 4 Sur 15 Nordeste 0 -- -- 90
2018-01-25 16:00:00 12.2 4 Sudoeste 13 Sudeste 0 -- -- 87
2018-01-25 15:00:00 12.2 4 Sur 14 Este 0 -- -- 88
2018-01-25 14:00:00 12.5 4 Sudeste 11 Sudeste 0 -- -- 85
2018-01-25 13:00:00 12 6 Sur 13 Este 0 -- -- 89
2018-01-25 12:00:00 11.9 4 Sur 15 Sudeste 0 -- -- 91
2018-01-25 11:00:00 12 4 Este 14 Sudeste 0 -- -- 89
2018-01-25 10:00:00 11.2 4 Sudoeste 13 Sudeste 0 -- -- 93
2018-01-25 09:00:00 10.4 4 Sur 12 Nordeste 0 -- -- 96
2018-01-25 08:00:00 10.5 4 Sudoeste 13 Este 0 -- -- 98
2018-01-25 07:00:00 10.4 4 Este 13 Sudeste 0 -- -- 98
2018-01-25 06:00:00 10.4 3 Oeste 12 Este 0 -- -- 97
2018-01-25 05:00:00 10.4 5 Sudeste 10 Sudeste 0 -- -- 97
2018-01-25 04:00:00 10.6 2 Sudeste 10 Nordeste 0 -- -- 98
2018-01-25 03:00:00 10.8 3 Sudeste 15 Sudeste 0 -- -- 98
2018-01-25 02:00:00 10.7 4 Sur 12 Sudeste 0 -- -- 98
2018-01-25 01:00:00 10.9 4 Este 15 Nordeste 0 -- -- 98
2018-01-25 00:00:00 11.2 3 Nordeste 12 Nordeste 0 -- -- 99
2018-01-24 23:00:00 11.4 4 Sudeste 15 Nordeste 0 -- -- 99
2018-01-24 22:00:00 11.3 8 Nordeste 16 Nordeste 0 -- -- 98
2018-01-24 21:00:00 11.5 4 Este 14 Nordeste 0 -- -- 97
2018-01-24 20:00:00 11.9 5 Nordeste 10 Norte 0 -- -- 97
2018-01-24 19:00:00 12.1 2 Norte 14 Norte 0 -- -- 96
2018-01-24 18:00:00 12.1 3 Norte 11 Nordeste 0 -- -- 94
2018-01-24 17:00:00 12.8 2 Nordeste 12 Este 0 -- -- 91
2018-01-24 16:00:00 13.2 3 Sudeste 13 Este 0 -- -- 88
2018-01-24 15:00:00 14 4 Sudeste 14 Sur 0 -- -- 86
2018-01-24 14:00:00 15.5 6 Sudeste 15 Sur 0 -- -- 81
2018-01-24 13:00:00 16.9 6 Sudeste 15 Este 0 -- -- 76
2018-01-24 12:00:00 14.5 5 Norte 16 Norte 0 -- -- 84
2018-01-24 11:00:00 12.8 5 Norte 10 Noroeste 0 -- -- 93
2018-01-24 10:00:00 11.5 4 Sur 11 Sudeste 0 -- -- 96
2018-01-24 09:00:00 11 3 Sudeste 13 Este 0 -- -- 97
2018-01-24 08:00:00 10.7 3 Sudeste 14 Este 0 -- -- 98
2018-01-24 07:00:00 10.9 5 Sudeste 18 Sudeste 0 -- -- 98
2018-01-24 06:00:00 10.8 6 Este 16 Nordeste 0 -- -- 97
2018-01-24 05:00:00 11 4 Sur 15 Este 0 -- -- 97
2018-01-24 04:00:00 10.9 5 Sudeste 18 Norte 0 -- -- 96
2018-01-24 03:00:00 10.8 6 Nordeste 16 Nordeste 0 -- -- 97
2018-01-24 02:00:00 11 4 Este 14 Este 0 -- -- 95
2018-01-24 01:00:00 10.7 4 Sudoeste 10 Norte 0 -- -- 93
2018-01-24 00:00:00 10.9 4 Sudoeste 16 Noroeste 0 -- -- 94
2018-01-23 23:00:00 11.8 4 Norte 12 Norte 0 -- -- 96
2018-01-23 22:00:00 12 4 Noroeste 15 Norte 0 -- -- 96
2018-01-23 21:00:00 12 9 Norte 15 Noroeste 0 -- -- 95
2018-01-23 20:00:00 12.1 3 Norte 12 Norte 0 -- -- 96
2018-01-23 19:00:00 12.2 5 Norte 10 Norte 0 -- -- 92
2018-01-23 18:00:00 15.3 6 Norte 10 Noroeste 0 -- -- 81
2018-01-23 17:00:00 17 3 Norte 12 Sudeste 0 -- -- 72
2018-01-23 16:00:00 18.1 6 Sur 13 Sur 0 -- -- 66
2018-01-23 15:00:00 18.4 5 Sur 17 Sudeste 0 -- -- 71
2018-01-23 14:00:00 17.9 8 Sur 15 Sudeste 0 -- -- 71
2018-01-23 13:00:00 16.6 4 Sudeste 10 Sudeste 0 -- -- 75
2018-01-23 12:00:00 13.2 6 Norte 15 Nordeste 0 -- -- 87
2018-01-23 11:00:00 12.1 5 Norte 13 Norte 0 -- -- 90
2018-01-23 10:00:00 12.1 3 Este 14 Este 0 -- -- 92
2018-01-23 09:00:00 11 3 Este 13 Nordeste 0 -- -- 94
2018-01-23 08:00:00 10.6 5 Sur 15 Este 0 -- -- 93
2018-01-23 07:00:00 10.8 4 Sur 15 Norte 0 -- -- 94
2018-01-23 06:00:00 10.9 4 Sur 14 Norte 0 -- -- 95
2018-01-23 05:00:00 10.8 6 Sudeste 17 Este 0 -- -- 95
2018-01-23 04:00:00 11 4 Sudeste 18 Este 0 -- -- 96
2018-01-23 03:00:00 11 3 Sudeste 14 Sudeste 0 -- -- 96
2018-01-23 02:00:00 11.3 4 Este 15 Este 0 -- -- 96
2018-01-23 01:00:00 11.5 3 Sur 17 Nordeste 0 -- -- 96
2018-01-23 00:00:00 11.5 4 Sudoeste 22 Sudeste 0 -- -- 93
2018-01-22 23:00:00 11.7 4 Sudeste 19 Nordeste 0 -- -- 93
2018-01-22 22:00:00 12 4 Sudeste 15 Nordeste 0 -- -- 90
2018-01-22 21:00:00 12.4 4 Sudeste 16 Nordeste 0 -- -- 90
2018-01-22 20:00:00 12.9 3 Sudeste 10 Noroeste 0 -- -- 87
2018-01-22 19:00:00 13.3 4 Norte 15 Nordeste 0 -- -- 89
2018-01-22 18:00:00 14.6 5 Norte 12 Norte 0 -- -- 81
2018-01-22 17:00:00 17.6 4 Norte 15 Noroeste 0 -- -- 67
2018-01-22 16:00:00 20.1 8 Norte 16 Norte 0 -- -- 44
2018-01-22 15:00:00 20.7 6 Noroeste 14 Norte 0 -- -- 36
2018-01-22 14:00:00 20.1 5 Noroeste 13 Nordeste 0 -- -- 42
2018-01-22 13:00:00 20.2 4 Noroeste 19 Sur 0 -- -- 50
2018-01-22 12:00:00 19.4 12 Sur 20 Sur 0 -- -- 39
2018-01-22 11:00:00 18.3 7 Sur 17 Sudeste 0 -- -- 44
2018-01-22 10:00:00 17 11 Sur 18 Sur 0 -- -- 35
2018-01-22 09:00:00 13.7 10 Sur 15 Sur 0 -- -- 44
2018-01-22 08:00:00 10 7 Norte 12 Nordeste 0 -- -- 98
2018-01-22 07:00:00 9.7 3 Norte 10 Norte 0 -- -- 97
2018-01-22 06:00:00 10.5 6 Norte 12 Norte 0 -- -- 96
2018-01-22 05:00:00 10.5 2 Norte 9 Norte 0 -- -- 94
2018-01-22 04:00:00 10.4 2 Noroeste 14 Sudoeste 0 -- -- 93
2018-01-22 03:00:00 10.2 6 Sudoeste 12 Sudoeste 0 -- -- 91
2018-01-22 02:00:00 10.8 5 Sudeste 12 Sudeste 0 -- -- 93
2018-01-22 01:00:00 10.8 3 Sudoeste 12 Sur 0 -- -- 91
2018-01-22 00:00:00 10.7 5 Sudoeste 10 Sur 0 -- -- 83